Time;durP1;ratioP1;P1;durP2;ratioP2;P2;SDS_P1;SDS_P2;PMS_P1;PMS_P2;Temp;Humidity;BMP_temperature;BMP_pressure;BME280_temperature;BME280_humidity;BME280_pressure;Samples;Min_cycle;Max_cycle;Signal;HPM_P1;HPM_P2
2022/11/25 00:00:47;;;;;;;;;;;15.90;86.40;;;;;;5088646;28;19912;-90
2022/11/25 00:03:15;;;;;;;;;;;15.90;86.40;;;;;;5072979;28;19922;-91
2022/11/25 00:05:44;;;;;;;;;;;15.90;86.40;;;;;;5073228;28;20236;-91
2022/11/25 00:08:10;;;;;;;;;;;15.90;86.30;;;;;;5074426;28;20209;-91
2022/11/25 00:10:36;;;;;;;;;;;15.90;86.50;;;;;;5094860;28;19909;-91
2022/11/25 00:13:02;;;;;;;;;;;15.90;86.50;;;;;;5091932;28;19919;-90
2022/11/25 00:15:28;;;;;;;;;;;15.90;86.60;;;;;;5092788;28;19908;-90
2022/11/25 00:17:57;;;;;;;;;;;15.90;86.60;;;;;;5092532;28;19912;-90
2022/11/25 00:20:22;;;;;;;;;;;15.90;86.50;;;;;;5093062;28;19908;-91
2022/11/25 00:22:51;;;;;;;;;;;15.80;86.50;;;;;;5092308;28;19926;-91
2022/11/25 00:25:19;;;;;;;;;;;15.80;86.50;;;;;;5094493;28;20175;-91
2022/11/25 00:27:46;;;;;;;;;;;15.80;86.50;;;;;;5091567;28;19955;-91
2022/11/25 00:30:11;;;;;;;;;;;15.80;86.50;;;;;;5093208;28;19988;-92
2022/11/25 00:32:37;;;;;;;;;;;15.80;86.60;;;;;;5091981;28;20240;-91
2022/11/25 00:35:06;;;;;;;;;;;15.80;86.70;;;;;;5077245;28;19908;-90
2022/11/25 00:37:31;;;;;;;;;;;15.80;86.70;;;;;;5092468;28;19922;-93
2022/11/25 00:40:00;;;;;;;;;;;15.80;86.50;;;;;;5095289;28;19909;-91
2022/11/25 00:45:12;;;;;;;;;;;15.80;86.70;;;;;;5078467;28;20300;-91
2022/11/25 00:47:38;;;;;;;;;;;15.80;86.80;;;;;;5095480;28;20019;-90
2022/11/25 00:50:04;;;;;;;;;;;15.70;86.70;;;;;;5094224;28;19920;-91
2022/11/25 00:52:35;;;;;;;;;;;15.70;86.70;;;;;;5077591;28;19995;-90
2022/11/25 00:55:01;;;;;;;;;;;15.70;86.70;;;;;;5077549;28;20308;-90
2022/11/25 00:57:30;;;;;;;;;;;15.70;86.60;;;;;;5077293;28;20399;-91
2022/11/25 00:59:56;;;;;;;;;;;15.70;86.70;;;;;;5076075;28;19923;-91
2022/11/25 01:02:25;;;;;;;;;;;15.70;86.80;;;;;;5092756;28;19908;-91
2022/11/25 01:04:53;;;;;;;;;;;15.70;86.80;;;;;;5092204;28;19908;-91
2022/11/25 01:07:22;;;;;;;;;;;15.70;86.80;;;;;;5094708;28;19913;-94
2022/11/25 01:09:48;;;;;;;;;;;15.70;86.90;;;;;;5094186;28;19908;-91
2022/11/25 01:12:17;;;;;;;;;;;15.60;86.90;;;;;;5094971;28;20006;-91
2022/11/25 01:14:45;;;;;;;;;;;15.70;86.90;;;;;;5094938;28;19920;-91
2022/11/25 01:17:11;;;;;;;;;;;15.60;87.50;;;;;;5094933;28;19908;-91
2022/11/25 01:19:39;;;;;;;;;;;15.60;87.00;;;;;;5095657;28;19912;-90
2022/11/25 01:22:08;;;;;;;;;;;15.60;87.10;;;;;;5094724;28;20236;-92
2022/11/25 01:24:34;;;;;;;;;;;15.60;87.10;;;;;;5096251;28;19912;-91
2022/11/25 01:27:00;;;;;;;;;;;15.60;87.10;;;;;;5094443;28;19919;-90
2022/11/25 01:29:28;;;;;;;;;;;15.60;87.20;;;;;;5095257;28;19974;-91
2022/11/25 01:31:55;;;;;;;;;;;15.60;87.20;;;;;;5095061;28;19934;-91
2022/11/25 01:34:22;;;;;;;;;;;15.60;87.10;;;;;;5094790;28;20357;-90
2022/11/25 01:36:48;;;;;;;;;;;15.50;87.10;;;;;;5094459;28;19974;-92
2022/11/25 01:39:18;;;;;;;;;;;15.50;87.10;;;;;;5094576;28;19938;-90
2022/11/25 01:41:47;;;;;;;;;;;15.50;87.30;;;;;;5094142;28;19934;-91
2022/11/25 01:44:17;;;;;;;;;;;15.50;87.30;;;;;;5095115;28;19923;-90
2022/11/25 01:46:46;;;;;;;;;;;15.50;87.30;;;;;;5050332;28;20236;-92
2022/11/25 01:49:32;;;;;;;;;;;15.40;87.40;;;;;;5074062;28;19909;-90
2022/11/25 01:52:10;;;;;;;;;;;15.40;87.40;;;;;;5073312;28;19951;-90
2022/11/25 01:54:38;;;;;;;;;;;15.40;87.60;;;;;;5074467;28;19939;-91
2022/11/25 01:57:10;;;;;;;;;;;15.40;87.70;;;;;;5092378;28;20198;-92
2022/11/25 01:59:38;;;;;;;;;;;15.40;87.60;;;;;;5091359;28;19919;-90
2022/11/25 02:02:08;;;;;;;;;;;15.30;87.60;;;;;;5074946;28;19912;-90
2022/11/25 02:04:38;;;;;;;;;;;15.30;87.80;;;;;;5091195;28;19916;-90
2022/11/25 02:07:13;;;;;;;;;;;15.30;87.70;;;;;;5091832;28;19966;-92
2022/11/25 02:09:41;;;;;;;;;;;15.30;87.60;;;;;;5076012;28;19931;-91
2022/11/25 02:12:10;;;;;;;;;;;15.30;87.70;;;;;;5075385;28;19908;-90
2022/11/25 02:14:38;;;;;;;;;;;15.30;87.80;;;;;;5092495;28;19905;-91
2022/11/25 02:17:07;;;;;;;;;;;15.30;87.80;;;;;;5092363;28;19913;-91
2022/11/25 02:19:41;;;;;;;;;;;15.30;87.80;;;;;;5094478;28;20006;-92
2022/11/25 02:22:10;;;;;;;;;;;15.30;87.80;;;;;;5093439;28;19909;-90
2022/11/25 02:24:43;;;;;;;;;;;15.30;87.90;;;;;;5094851;28;19909;-92
2022/11/25 02:27:12;;;;;;;;;;;15.20;87.80;;;;;;5092321;28;20000;-90
2022/11/25 02:29:45;;;;;;;;;;;15.20;87.80;;;;;;5076884;28;20369;-91
2022/11/25 02:32:13;;;;;;;;;;;15.20;87.90;;;;;;5091158;28;19912;-91
2022/11/25 02:34:46;;;;;;;;;;;15.20;88.10;;;;;;5091837;28;19956;-91
2022/11/25 02:37:12;;;;;;;;;;;15.20;87.90;;;;;;5073694;28;20341;-90
2022/11/25 02:39:38;;;;;;;;;;;15.20;88.00;;;;;;5089878;28;20019;-92
2022/11/25 02:42:07;;;;;;;;;;;15.20;88.00;;;;;;5090166;28;19991;-91
2022/11/25 02:44:35;;;;;;;;;;;15.20;88.10;;;;;;5073380;28;19917;-91
2022/11/25 02:47:01;;;;;;;;;;;15.20;88.10;;;;;;5088010;28;19917;-91
2022/11/25 02:49:26;;;;;;;;;;;15.20;88.10;;;;;;5087505;28;19919;-90
2022/11/25 02:51:52;;;;;;;;;;;15.20;88.10;;;;;;5089916;28;19980;-91
2022/11/25 02:54:26;;;;;;;;;;;15.20;88.20;;;;;;5091180;28;19909;-91
2022/11/25 02:56:51;;;;;;;;;;;15.20;88.20;;;;;;5092273;28;19908;-93
2022/11/25 02:59:17;;;;;;;;;;;15.20;88.20;;;;;;5093151;28;19909;-90
2022/11/25 03:01:42;;;;;;;;;;;15.10;88.20;;;;;;5093468;28;20451;-92
2022/11/25 03:04:09;;;;;;;;;;;15.10;88.20;;;;;;5094075;28;19908;-91
2022/11/25 03:06:34;;;;;;;;;;;15.10;88.20;;;;;;5093826;28;19913;-90
2022/11/25 03:09:03;;;;;;;;;;;15.10;88.50;;;;;;5093069;28;19978;-91
2022/11/25 03:14:16;;;;;;;;;;;15.10;88.40;;;;;;5078417;28;19959;-92
2022/11/25 03:16:44;;;;;;;;;;;15.10;88.40;;;;;;5094579;28;19948;-90
2022/11/25 03:19:10;;;;;;;;;;;15.10;88.40;;;;;;5094031;28;19915;-90
2022/11/25 03:21:35;;;;;;;;;;;15.10;88.40;;;;;;5093568;28;19952;-92
2022/11/25 03:24:04;;;;;;;;;;;15.10;88.40;;;;;;5093802;28;19908;-90
2022/11/25 03:26:29;;;;;;;;;;;15.10;88.40;;;;;;5092997;28;19909;-91
2022/11/25 03:28:55;;;;;;;;;;;15.10;88.40;;;;;;5093433;28;19922;-90
2022/11/25 03:31:20;;;;;;;;;;;15.10;88.50;;;;;;5092741;28;19916;-91
2022/11/25 03:33:46;;;;;;;;;;;15.10;88.50;;;;;;5093652;28;19992;-90
2022/11/25 03:36:15;;;;;;;;;;;15.10;88.50;;;;;;5092928;28;20003;-91
2022/11/25 03:38:40;;;;;;;;;;;15.10;88.50;;;;;;5092927;28;19916;-94
2022/11/25 03:41:06;;;;;;;;;;;15.10;88.50;;;;;;5092762;28;19908;-90
2022/11/25 03:43:32;;;;;;;;;;;15.00;88.60;;;;;;5076522;28;19908;-89
2022/11/25 03:45:57;;;;;;;;;;;15.10;88.50;;;;;;5091637;28;20117;-91
2022/11/25 03:48:23;;;;;;;;;;;15.00;88.50;;;;;;5091952;28;20277;-90
2022/11/25 03:50:51;;;;;;;;;;;15.10;88.60;;;;;;5092162;28;20018;-90
2022/11/25 03:53:17;;;;;;;;;;;15.10;88.60;;;;;;5092716;28;19913;-90
2022/11/25 03:55:42;;;;;;;;;;;15.10;88.60;;;;;;5092185;28;19944;-93
2022/11/25 03:58:08;;;;;;;;;;;15.10;88.60;;;;;;5093064;28;19908;-91
2022/11/25 04:00:34;;;;;;;;;;;15.00;88.50;;;;;;5092230;28;19916;-91
2022/11/25 04:03:04;;;;;;;;;;;15.00;88.60;;;;;;5091329;28;20020;-90
2022/11/25 04:05:29;;;;;;;;;;;15.00;88.60;;;;;;5092800;28;19908;-91
2022/11/25 04:07:55;;;;;;;;;;;15.00;88.60;;;;;;5092780;28;20190;-90
2022/11/25 04:10:26;;;;;;;;;;;15.00;88.50;;;;;;5092849;28;19938;-92
2022/11/25 04:12:55;;;;;;;;;;;15.00;88.70;;;;;;5092792;28;19908;-90
2022/11/25 04:15:21;;;;;;;;;;;15.00;88.80;;;;;;5091915;28;19916;-90
2022/11/25 04:17:46;;;;;;;;;;;15.00;88.80;;;;;;5089725;28;19909;-90
2022/11/25 04:20:13;;;;;;;;;;;15.00;88.90;;;;;;5091161;28;19909;-90
2022/11/25 04:22:41;;;;;;;;;;;15.00;88.80;;;;;;5091731;28;19923;-90
2022/11/25 04:25:08;;;;;;;;;;;15.00;88.70;;;;;;5091385;28;19917;-90
2022/11/25 04:27:36;;;;;;;;;;;15.00;88.80;;;;;;5090022;28;19922;-90
2022/11/25 04:30:05;;;;;;;;;;;15.00;88.80;;;;;;5090360;28;19970;-90
2022/11/25 04:32:35;;;;;;;;;;;15.00;88.80;;;;;;5090371;28;19927;-89
2022/11/25 04:35:00;;;;;;;;;;;15.00;88.80;;;;;;5073728;28;19916;-90
2022/11/25 04:37:26;;;;;;;;;;;15.00;88.80;;;;;;5090342;28;19989;-90
2022/11/25 04:39:52;;;;;;;;;;;15.00;88.80;;;;;;5074175;28;20007;-90
2022/11/25 04:42:38;;;;;;;;;;;15.00;88.70;;;;;;5073204;28;19912;-90
2022/11/25 04:45:17;;;;;;;;;;;15.00;88.80;;;;;;5090202;28;19920;-92
2022/11/25 04:47:44;;;;;;;;;;;15.00;88.80;;;;;;5091641;28;19913;-92
2022/11/25 04:50:14;;;;;;;;;;;15.00;88.90;;;;;;5093689;28;19995;-94
2022/11/25 04:52:39;;;;;;;;;;;15.00;89.10;;;;;;5091260;28;20267;-93
2022/11/25 04:55:05;;;;;;;;;;;15.00;89.30;;;;;;5090304;28;19915;-93
2022/11/25 04:57:35;;;;;;;;;;;15.00;89.50;;;;;;5094286;28;20246;-92
2022/11/25 05:00:01;;;;;;;;;;;14.90;89.60;;;;;;5093455;28;20369;-91
2022/11/25 05:02:35;;;;;;;;;;;14.90;89.60;;;;;;5093575;28;20334;-91
2022/11/25 05:05:01;;;;;;;;;;;14.90;89.80;;;;;;5094266;28;19962;-92
2022/11/25 05:07:29;;;;;;;;;;;14.90;89.70;;;;;;5092847;28;19943;-92
2022/11/25 05:09:58;;;;;;;;;;;14.90;89.80;;;;;;5093764;28;20293;-92
2022/11/25 05:12:28;;;;;;;;;;;14.90;89.90;;;;;;5096607;28;19908;-91
2022/11/25 05:14:57;;;;;;;;;;;14.90;90.00;;;;;;5093450;28;19999;-91
2022/11/25 05:17:24;;;;;;;;;;;14.90;90.00;;;;;;5093116;28;19923;-91
2022/11/25 05:19:53;;;;;;;;;;;14.80;90.00;;;;;;5092662;28;19921;-91
2022/11/25 05:22:23;;;;;;;;;;;14.80;90.00;;;;;;5091516;28;20242;-91
2022/11/25 05:24:52;;;;;;;;;;;14.80;90.10;;;;;;5092154;28;19908;-91
2022/11/25 05:27:21;;;;;;;;;;;14.80;90.10;;;;;;5092351;28;19912;-92
2022/11/25 05:29:50;;;;;;;;;;;14.80;90.20;;;;;;5093570;28;19948;-91
2022/11/25 05:32:15;;;;;;;;;;;14.80;90.20;;;;;;5090743;28;19909;-91
2022/11/25 05:34:44;;;;;;;;;;;14.80;90.20;;;;;;5089903;28;19917;-91
2022/11/25 05:37:14;;;;;;;;;;;14.80;90.30;;;;;;5089111;28;20019;-91
2022/11/25 05:39:43;;;;;;;;;;;14.80;90.50;;;;;;5088023;28;19908;-90
2022/11/25 05:42:08;;;;;;;;;;;15.60;87.50;;;;;;5091537;28;19909;-91
2022/11/25 05:44:34;;;;;;;;;;;16.30;82.20;;;;;;5091747;28;20252;-90
2022/11/25 05:47:03;;;;;;;;;;;16.70;79.40;;;;;;5089461;28;19936;-91
2022/11/25 05:49:28;;;;;;;;;;;17.00;77.50;;;;;;5089727;28;19909;-91
2022/11/25 05:51:54;;;;;;;;;;;17.10;76.30;;;;;;5088349;28;19919;-91
2022/11/25 05:54:19;;;;;;;;;;;17.30;75.00;;;;;;5074185;28;19919;-90
2022/11/25 05:56:48;;;;;;;;;;;17.40;74.00;;;;;;5090253;28;19909;-91
2022/11/25 05:59:13;;;;;;;;;;;17.60;73.10;;;;;;5071272;28;19908;-92
2022/11/25 06:01:39;;;;;;;;;;;17.60;72.40;;;;;;5074155;28;19923;-90
2022/11/25 06:04:05;;;;;;;;;;;17.70;71.90;;;;;;5086623;28;19919;-91
2022/11/25 06:06:34;;;;;;;;;;;17.70;71.70;;;;;;5071030;28;19919;-91
2022/11/25 06:09:03;;;;;;;;;;;17.90;71.10;;;;;;5086329;28;19912;-91
2022/11/25 06:11:28;;;;;;;;;;;18.10;70.60;;;;;;5088108;28;19935;-91
2022/11/25 06:13:57;;;;;;;;;;;18.20;69.90;;;;;;5074270;28;20186;-92
2022/11/25 06:16:24;;;;;;;;;;;18.30;69.20;;;;;;5075254;28;20140;-92
2022/11/25 06:18:53;;;;;;;;;;;18.40;68.70;;;;;;5088832;28;19999;-92
2022/11/25 06:21:19;;;;;;;;;;;18.40;68.40;;;;;;5091202;28;19924;-92
2022/11/25 06:23:47;;;;;;;;;;;18.40;68.30;;;;;;5090143;28;19912;-92
2022/11/25 06:26:18;;;;;;;;;;;18.30;68.40;;;;;;5089929;28;20205;-92
2022/11/25 06:28:47;;;;;;;;;;;18.20;69.00;;;;;;5092107;28;20126;-92
2022/11/25 06:31:14;;;;;;;;;;;18.10;69.60;;;;;;5100926;28;19908;-93
2022/11/25 06:33:40;;;;;;;;;;;18.00;70.40;;;;;;5102658;28;19916;-94
2022/11/25 06:36:07;;;;;;;;;;;17.90;71.00;;;;;;5105860;28;19920;-94
2022/11/25 06:38:43;;;;;;;;;;;17.80;71.50;;;;;;5105772;28;19921;-94
2022/11/25 06:41:12;;;;;;;;;;;17.70;72.20;;;;;;5093515;28;19978;-94
2022/11/25 06:43:38;;;;;;;;;;;17.60;72.90;;;;;;5097817;28;20379;-93
2022/11/25 06:46:08;;;;;;;;;;;17.60;73.50;;;;;;5093727;28;19909;-94
2022/11/25 06:48:37;;;;;;;;;;;17.40;74.10;;;;;;5096362;28;19912;-93
2022/11/25 06:51:06;;;;;;;;;;;17.30;74.70;;;;;;5102709;28;19915;-94
2022/11/25 06:53:35;;;;;;;;;;;17.30;75.40;;;;;;5098687;28;20333;-94
2022/11/25 06:56:04;;;;;;;;;;;17.20;76.10;;;;;;5094693;28;19919;-93
2022/11/25 06:58:34;;;;;;;;;;;17.10;76.80;;;;;;5077784;28;20222;-93
2022/11/25 07:01:03;;;;;;;;;;;17.00;77.50;;;;;;5091725;28;19908;-93
2022/11/25 07:03:32;;;;;;;;;;;16.90;78.30;;;;;;5091730;28;19948;-93
2022/11/25 07:05:58;;;;;;;;;;;16.80;78.90;;;;;;5090191;28;19915;-93
2022/11/25 07:08:24;;;;;;;;;;;16.70;79.70;;;;;;5087475;28;20423;-92
2022/11/25 07:10:50;;;;;;;;;;;16.70;80.20;;;;;;5089384;28;20465;-92
2022/11/25 07:13:18;;;;;;;;;;;16.60;80.60;;;;;;5090029;28;19944;-93
2022/11/25 07:15:44;;;;;;;;;;;16.50;81.20;;;;;;5088464;28;20000;-92
2022/11/25 07:18:09;;;;;;;;;;;16.50;81.70;;;;;;5086078;28;20284;-92
2022/11/25 07:20:35;;;;;;;;;;;16.40;82.20;;;;;;5086876;28;19912;-93
2022/11/25 07:23:01;;;;;;;;;;;16.40;82.70;;;;;;5087954;28;19920;-93
2022/11/25 07:25:26;;;;;;;;;;;16.30;83.20;;;;;;5085965;28;19913;-93
2022/11/25 07:27:52;;;;;;;;;;;16.30;83.60;;;;;;5084563;28;20143;-92
2022/11/25 07:30:17;;;;;;;;;;;16.30;84.00;;;;;;5069276;28;19915;-92
2022/11/25 07:32:44;;;;;;;;;;;16.20;84.30;;;;;;5089952;28;20003;-93
2022/11/25 07:35:12;;;;;;;;;;;16.20;84.90;;;;;;5087698;28;19916;-93
2022/11/25 07:37:38;;;;;;;;;;;16.20;85.10;;;;;;5084167;28;19993;-92
2022/11/25 07:40:04;;;;;;;;;;;16.30;85.30;;;;;;5083944;28;20007;-92
2022/11/25 07:42:30;;;;;;;;;;;16.30;85.40;;;;;;5086671;28;20225;-93
2022/11/25 07:44:58;;;;;;;;;;;16.40;85.10;;;;;;5070472;28;19971;-93
2022/11/25 07:47:24;;;;;;;;;;;16.50;84.60;;;;;;5087104;28;19915;-92
2022/11/25 07:49:49;;;;;;;;;;;16.70;83.90;;;;;;5088149;28;19909;-92
2022/11/25 07:52:16;;;;;;;;;;;16.90;82.90;;;;;;5087595;28;19948;-92
2022/11/25 07:54:42;;;;;;;;;;;17.10;82.00;;;;;;5088136;28;20011;-92
2022/11/25 07:57:07;;;;;;;;;;;17.20;80.70;;;;;;5081290;28;20269;-92
2022/11/25 07:59:40;;;;;;;;;;;17.40;80.00;;;;;;5086922;28;20096;-92
2022/11/25 08:02:07;;;;;;;;;;;17.50;79.40;;;;;;5085351;28;19908;-92
2022/11/25 08:04:33;;;;;;;;;;;17.60;78.80;;;;;;5089463;28;19908;-92
2022/11/25 08:07:01;;;;;;;;;;;17.70;78.20;;;;;;5087985;28;19912;-93
2022/11/25 08:09:30;;;;;;;;;;;17.70;77.80;;;;;;5088288;28;19908;-94
2022/11/25 08:11:56;;;;;;;;;;;17.80;77.50;;;;;;5086766;28;19973;-92
2022/11/25 08:14:21;;;;;;;;;;;17.80;77.10;;;;;;5084751;28;19913;-93
2022/11/25 08:16:47;;;;;;;;;;;17.80;77.20;;;;;;5085772;28;19916;-92
2022/11/25 08:19:14;;;;;;;;;;;17.80;77.20;;;;;;5086486;28;20297;-93
2022/11/25 08:21:43;;;;;;;;;;;17.80;77.40;;;;;;5086051;28;20007;-92
2022/11/25 08:24:13;;;;;;;;;;;17.70;77.70;;;;;;5086084;28;20000;-93
2022/11/25 08:26:42;;;;;;;;;;;17.70;77.80;;;;;;5087525;28;20282;-93
2022/11/25 08:29:10;;;;;;;;;;;17.70;77.80;;;;;;5087126;28;19909;-92
2022/11/25 08:31:36;;;;;;;;;;;17.70;77.60;;;;;;5073129;28;20242;-93
2022/11/25 08:34:05;;;;;;;;;;;17.80;77.30;;;;;;5090284;28;19916;-92
2022/11/25 08:36:32;;;;;;;;;;;17.80;76.90;;;;;;5090541;28;19974;-92
2022/11/25 08:39:03;;;;;;;;;;;17.70;76.90;;;;;;5092284;28;19912;-93
2022/11/25 08:41:31;;;;;;;;;;;17.70;77.00;;;;;;5090118;28;20274;-92
2022/11/25 08:44:01;;;;;;;;;;;17.70;77.00;;;;;;5090522;28;19933;-93
2022/11/25 08:46:29;;;;;;;;;;;18.40;75.40;;;;;;5073878;28;19985;-93
2022/11/25 08:48:58;;;;;;;;;;;19.40;70.00;;;;;;5071853;28;19912;-93
2022/11/25 08:51:31;;;;;;;;;;;20.00;65.90;;;;;;5072184;28;19908;-92
2022/11/25 08:54:00;;;;;;;;;;;20.20;63.30;;;;;;5069552;28;19909;-93
2022/11/25 08:56:26;;;;;;;;;;;19.50;64.50;;;;;;5070078;28;20003;-93
2022/11/25 08:58:58;;;;;;;;;;;18.80;67.00;;;;;;5083442;28;20266;-93
2022/11/25 09:01:27;;;;;;;;;;;18.40;69.50;;;;;;5058850;28;20176;-93
2022/11/25 09:03:54;;;;;;;;;;;18.10;71.40;;;;;;5086780;28;20139;-93
2022/11/25 09:06:30;;;;;;;;;;;17.90;72.80;;;;;;5088159;28;19938;-92
2022/11/25 09:09:05;;;;;;;;;;;17.90;73.80;;;;;;5085365;28;19908;-92
2022/11/25 09:11:31;;;;;;;;;;;18.20;73.90;;;;;;5085961;28;19908;-92
2022/11/25 09:13:57;;;;;;;;;;;18.60;70.80;;;;;;5087128;28;19908;-94
2022/11/25 09:16:22;;;;;;;;;;;18.80;70.20;;;;;;5087997;28;19958;-93
2022/11/25 09:18:48;;;;;;;;;;;19.10;68.40;;;;;;5087045;28;20266;-92
2022/11/25 09:21:15;;;;;;;;;;;19.50;65.70;;;;;;5088289;28;19915;-92
2022/11/25 09:23:40;;;;;;;;;;;19.50;64.60;;;;;;5089538;28;20080;-92
2022/11/25 09:26:07;;;;;;;;;;;19.20;65.00;;;;;;5089322;28;19962;-92
2022/11/25 09:28:35;;;;;;;;;;;19.00;66.30;;;;;;5088258;28;19908;-92
2022/11/25 09:31:08;;;;;;;;;;;18.80;66.80;;;;;;5070502;28;19908;-93
2022/11/25 09:33:34;;;;;;;;;;;18.60;68.30;;;;;;5088269;28;19920;-92
2022/11/25 09:36:00;;;;;;;;;;;18.40;69.40;;;;;;5087608;28;19973;-92
2022/11/25 09:38:25;;;;;;;;;;;18.40;69.80;;;;;;5088680;28;19916;-92
2022/11/25 09:41:14;;;;;;;;;;;18.40;69.90;;;;;;5070869;28;19908;-91
2022/11/25 09:46:52;;;;;;;;;;;18.40;70.20;;;;;;5071873;28;20033;-92
2022/11/25 09:49:28;;;;;;;;;;;18.50;69.60;;;;;;5070142;28;19928;-92
2022/11/25 09:52:11;;;;;;;;;;;18.70;68.80;;;;;;5085681;28;19950;-92
2022/11/25 09:54:40;;;;;;;;;;;18.80;68.20;;;;;;5087439;28;19920;-92
2022/11/25 09:57:17;;;;;;;;;;;18.80;67.80;;;;;;5070038;28;19917;-91
2022/11/25 10:00:01;;;;;;;;;;;18.90;67.20;;;;;;5086146;28;19920;-92
2022/11/25 10:02:36;;;;;;;;;;;19.00;66.20;;;;;;5069421;28;19913;-92
2022/11/25 10:05:22;;;;;;;;;;;19.30;65.00;;;;;;5069050;28;19917;-92
2022/11/25 10:08:07;;;;;;;;;;;19.50;64.10;;;;;;5037410;28;19997;-92
2022/11/25 10:10:41;;;;;;;;;;;19.60;63.30;;;;;;5084531;28;20316;-92
2022/11/25 10:13:17;;;;;;;;;;;19.70;63.00;;;;;;5085517;28;19909;-92
2022/11/25 10:15:48;;;;;;;;;;;19.70;62.80;;;;;;5086071;28;20011;-91
2022/11/25 10:18:33;;;;;;;;;;;19.60;62.80;;;;;;5084499;28;19923;-92
2022/11/25 10:20:59;;;;;;;;;;;19.60;63.10;;;;;;5080707;28;19939;-91
2022/11/25 10:23:31;;;;;;;;;;;19.50;63.50;;;;;;5084903;28;20165;-91
2022/11/25 10:26:00;;;;;;;;;;;19.40;63.90;;;;;;5067162;28;20444;-91
2022/11/25 10:28:30;;;;;;;;;;;19.40;64.30;;;;;;5080943;28;20037;-91
2022/11/25 10:31:07;;;;;;;;;;;19.30;64.60;;;;;;5080838;28;20011;-91
2022/11/25 10:33:42;;;;;;;;;;;19.20;65.50;;;;;;5081665;28;19917;-92
2022/11/25 10:36:40;;;;;;;;;;;19.10;66.20;;;;;;5065537;28;19961;-91
2022/11/25 10:39:11;;;;;;;;;;;18.90;66.70;;;;;;5003372;28;20034;-91
2022/11/25 10:41:52;;;;;;;;;;;18.80;67.70;;;;;;5010668;28;19916;-91
2022/11/25 10:44:26;;;;;;;;;;;18.70;68.30;;;;;;5065291;28;19944;-91
2022/11/25 10:46:57;;;;;;;;;;;18.60;69.40;;;;;;5083160;28;20201;-91
2022/11/25 10:49:38;;;;;;;;;;;18.50;70.00;;;;;;5065822;28;19916;-91
2022/11/25 10:52:09;;;;;;;;;;;18.40;70.40;;;;;;5084611;28;19939;-91
2022/11/25 10:54:39;;;;;;;;;;;18.40;71.00;;;;;;5085299;28;20002;-91
2022/11/25 10:57:28;;;;;;;;;;;18.30;71.50;;;;;;5068203;28;20027;-91
2022/11/25 10:59:58;;;;;;;;;;;18.20;72.20;;;;;;5086474;28;19944;-91
2022/11/25 11:02:25;;;;;;;;;;;18.10;72.70;;;;;;5084599;28;19908;-91
2022/11/25 11:05:06;;;;;;;;;;;18.10;73.20;;;;;;5084707;28;19912;-91
2022/11/25 11:07:37;;;;;;;;;;;18.00;73.50;;;;;;5068833;28;19908;-91
2022/11/25 11:10:19;;;;;;;;;;;18.00;74.10;;;;;;5086639;28;19908;-91
2022/11/25 11:13:05;;;;;;;;;;;17.90;74.60;;;;;;5068286;28;19919;-90
2022/11/25 11:15:35;;;;;;;;;;;17.90;75.30;;;;;;5085658;28;19913;-90
2022/11/25 11:18:13;;;;;;;;;;;17.80;75.80;;;;;;5086461;28;20354;-91
2022/11/25 11:20:43;;;;;;;;;;;17.80;76.20;;;;;;5084747;28;19908;-91
2022/11/25 11:23:16;;;;;;;;;;;17.80;76.40;;;;;;5066327;28;19986;-91
2022/11/25 11:25:59;;;;;;;;;;;17.80;76.30;;;;;;5081818;28;19948;-91
2022/11/25 11:28:31;;;;;;;;;;;17.90;76.40;;;;;;5080459;28;20262;-91
2022/11/25 11:31:02;;;;;;;;;;;17.80;76.40;;;;;;5082871;28;19909;-91
2022/11/25 11:33:47;;;;;;;;;;;17.90;76.30;;;;;;5081830;28;20042;-90
2022/11/25 11:36:31;;;;;;;;;;;17.90;76.10;;;;;;5059252;28;19962;-90
2022/11/25 11:39:10;;;;;;;;;;;18.00;75.90;;;;;;5065164;28;20049;-91
2022/11/25 11:41:38;;;;;;;;;;;18.10;75.70;;;;;;5083074;28;20055;-91
2022/11/25 11:44:24;;;;;;;;;;;18.10;75.30;;;;;;5081517;28;20198;-91
2022/11/25 11:46:53;;;;;;;;;;;18.10;75.20;;;;;;5079551;28;19913;-91
2022/11/25 11:49:19;;;;;;;;;;;18.20;74.70;;;;;;5067182;28;19909;-91
2022/11/25 11:51:47;;;;;;;;;;;18.20;74.50;;;;;;5066623;28;19977;-91
2022/11/25 11:54:17;;;;;;;;;;;18.30;74.10;;;;;;5066854;28;19995;-91
2022/11/25 11:56:45;;;;;;;;;;;18.30;73.90;;;;;;5081361;28;19909;-91
2022/11/25 11:59:11;;;;;;;;;;;18.30;73.70;;;;;;5082434;28;19967;-91
2022/11/25 12:01:49;;;;;;;;;;;18.40;73.80;;;;;;5065534;28;19940;-91
2022/11/25 12:04:20;;;;;;;;;;;18.40;73.70;;;;;;5065673;28;19912;-91
2022/11/25 12:06:56;;;;;;;;;;;18.30;73.90;;;;;;5065115;28;19908;-91
2022/11/25 12:09:21;;;;;;;;;;;18.30;74.00;;;;;;5071066;28;19916;-91
2022/11/25 12:11:52;;;;;;;;;;;18.30;74.30;;;;;;5068272;28;19908;-91
2022/11/25 12:14:30;;;;;;;;;;;18.20;74.50;;;;;;5068407;28;19990;-91
2022/11/25 12:16:58;;;;;;;;;;;18.20;75.00;;;;;;5082083;28;19909;-91
2022/11/25 12:19:40;;;;;;;;;;;18.10;75.40;;;;;;5082456;28;19912;-91
2022/11/25 12:22:09;;;;;;;;;;;18.10;75.90;;;;;;5085816;28;20404;-91
2022/11/25 12:24:40;;;;;;;;;;;18.10;76.00;;;;;;5084262;28;19946;-90
2022/11/25 12:27:09;;;;;;;;;;;18.10;76.30;;;;;;5067645;28;19965;-91
2022/11/25 12:29:36;;;;;;;;;;;18.00;76.70;;;;;;5067817;28;19908;-91
2022/11/25 12:32:29;;;;;;;;;;;18.00;77.00;;;;;;5066265;28;19978;-91
2022/11/25 12:34:57;;;;;;;;;;;18.00;77.30;;;;;;5085049;28;20284;-91
2022/11/25 12:37:33;;;;;;;;;;;17.90;77.50;;;;;;5083470;28;20075;-92
2022/11/25 12:40:15;;;;;;;;;;;17.90;81.20;;;;;;5084482;28;20004;-91
2022/11/25 12:42:44;;;;;;;;;;;17.90;83.70;;;;;;5080363;28;20133;-90
2022/11/25 12:45:10;;;;;;;;;;;17.80;87.10;;;;;;5067345;28;19916;-91
2022/11/25 12:47:35;;;;;;;;;;;17.80;90.50;;;;;;5067351;28;19912;-91
2022/11/25 12:50:04;;;;;;;;;;;17.90;90.60;;;;;;5085361;28;19908;-91
2022/11/25 12:52:51;;;;;;;;;;;17.90;90.70;;;;;;5066711;28;20040;-91
2022/11/25 12:55:21;;;;;;;;;;;17.90;90.60;;;;;;5068786;28;19909;-91
2022/11/25 12:58:05;;;;;;;;;;;17.90;90.50;;;;;;5068775;28;19943;-91
2022/11/25 13:00:41;;;;;;;;;;;17.90;90.60;;;;;;5070075;28;20010;-91
2022/11/25 13:03:25;;;;;;;;;;;17.90;90.60;;;;;;5081270;28;20274;-91
2022/11/25 13:05:51;;;;;;;;;;;17.80;90.70;;;;;;5066842;28;20368;-91
2022/11/25 13:08:25;;;;;;;;;;;17.90;90.90;;;;;;5070668;28;20284;-91
2022/11/25 13:11:03;;;;;;;;;;;17.80;90.90;;;;;;5069441;28;20181;-92
2022/11/25 13:13:51;;;;;;;;;;;17.80;91.20;;;;;;5070910;28;19973;-91
2022/11/25 13:16:18;;;;;;;;;;;17.80;91.30;;;;;;5085963;28;19999;-91
2022/11/25 13:18:43;;;;;;;;;;;17.70;91.40;;;;;;5087271;28;19938;-91
2022/11/25 13:21:10;;;;;;;;;;;17.80;91.40;;;;;;5085821;28;20383;-91
2022/11/25 13:23:55;;;;;;;;;;;17.80;91.50;;;;;;5086877;28;19916;-91
2022/11/25 13:26:27;;;;;;;;;;;17.80;91.60;;;;;;5071112;28;20205;-91
2022/11/25 13:28:56;;;;;;;;;;;17.70;91.70;;;;;;5071187;28;19919;-91
2022/11/25 13:31:23;;;;;;;;;;;17.70;91.80;;;;;;5069039;28;19908;-90
2022/11/25 13:33:54;;;;;;;;;;;17.70;91.90;;;;;;5077195;28;20002;-91
2022/11/25 13:36:24;;;;;;;;;;;17.70;91.90;;;;;;5067329;28;19940;-91
2022/11/25 13:38:50;;;;;;;;;;;17.70;92.00;;;;;;5055546;28;19928;-91
2022/11/25 13:41:15;;;;;;;;;;;17.70;92.00;;;;;;5067508;28;19909;-91
2022/11/25 13:43:59;;;;;;;;;;;17.70;92.10;;;;;;5065163;28;19924;-91
2022/11/25 13:46:31;;;;;;;;;;;17.70;92.00;;;;;;5062789;28;20167;-91
2022/11/25 13:48:57;;;;;;;;;;;17.80;92.10;;;;;;5074023;28;19955;-91
2022/11/25 13:51:26;;;;;;;;;;;17.80;92.10;;;;;;5066217;28;20249;-91
2022/11/25 13:54:04;;;;;;;;;;;17.80;92.10;;;;;;5084141;28;19954;-91
2022/11/25 13:56:36;;;;;;;;;;;17.70;92.10;;;;;;5085793;28;19916;-91
2022/11/25 13:59:17;;;;;;;;;;;17.70;92.20;;;;;;5082778;28;19913;-91
2022/11/25 14:01:49;;;;;;;;;;;17.70;92.20;;;;;;5067201;28;20052;-91
2022/11/25 14:04:19;;;;;;;;;;;17.70;92.30;;;;;;5067565;28;19908;-91
2022/11/25 14:06:57;;;;;;;;;;;17.70;92.30;;;;;;5084332;28;19908;-91
2022/11/25 14:09:26;;;;;;;;;;;17.70;92.40;;;;;;5066438;28;19909;-91
2022/11/25 14:12:10;;;;;;;;;;;17.70;92.40;;;;;;5068259;28;19909;-91
2022/11/25 14:14:46;;;;;;;;;;;17.70;92.50;;;;;;5066389;28;20259;-90
2022/11/25 14:17:30;;;;;;;;;;;17.60;92.50;;;;;;5085050;28;19909;-91
2022/11/25 14:20:14;;;;;;;;;;;17.60;92.60;;;;;;5067918;28;20274;-91
2022/11/25 14:22:59;;;;;;;;;;;17.60;92.60;;;;;;5066970;28;20377;-91
2022/11/25 14:25:30;;;;;;;;;;;17.60;92.80;;;;;;5043941;28;19935;-91
2022/11/25 14:28:14;;;;;;;;;;;17.60;92.80;;;;;;5082697;28;20007;-90
2022/11/25 14:30:47;;;;;;;;;;;17.50;92.80;;;;;;5067104;28;19959;-90
2022/11/25 14:33:14;;;;;;;;;;;17.50;92.90;;;;;;5067313;28;19920;-90
2022/11/25 14:35:42;;;;;;;;;;;17.50;92.70;;;;;;5069187;28;19972;-90
2022/11/25 14:38:12;;;;;;;;;;;17.40;92.60;;;;;;5082764;28;20022;-90
2022/11/25 14:41:01;;;;;;;;;;;17.40;92.70;;;;;;5066022;28;19934;-91